ACA854 CYYZ-EGLL
Flight info
| Callsign | ACA854 |
|---|---|
| Flight time | N/A |
| Altitude | 35000 |
| Route | VERDO7 IPTOS Q921 AGLUK DCT BAREE N581A TUDEP/M083F360 NATT NETKI/N0479F370 DCT BOFUM Q37 MALUD Q38 NUGRA |
| Aircraft | B77W/H-SDE1E2E3FGHIJ2J3J4J5M1RWXY/LB1D1 |
Departure
| Time | N/A |
|---|---|
| Airport | Toronto Pearson International Airport (CYYZ) |
Arrival
| Time | 2026-05-06 04:49 |
|---|---|
| Airport | London Heathrow Airport (EGLL) |
| Time | Latitude | Longitude | Altitude | Speed | Heading |
|---|---|---|---|---|---|
| 2026-05-06 04:42 | 51.47590 | -0.92255 | 4015 ft | 218 kts | 86° |
| 2026-05-06 04:43 | 51.47601 | -0.89825 | 4021 ft | 218 kts | 86° |
| 2026-05-06 04:43 | 51.47610 | -0.87451 | 4026 ft | 219 kts | 86° |
| 2026-05-06 04:43 | 51.47618 | -0.85012 | 4032 ft | 219 kts | 86° |
| 2026-05-06 04:43 | 51.47626 | -0.82571 | 4025 ft | 219 kts | 86° |
| 2026-05-06 04:44 | 51.47635 | -0.80121 | 4026 ft | 219 kts | 86° |
| 2026-05-06 04:44 | 51.47643 | -0.77705 | 3735 ft | 211 kts | 86° |
| 2026-05-06 04:44 | 51.47649 | -0.75449 | 3484 ft | 194 kts | 85° |
| 2026-05-06 04:44 | 51.47656 | -0.73380 | 3231 ft | 177 kts | 85° |
| 2026-05-06 04:45 | 51.47663 | -0.71478 | 3023 ft | 169 kts | 85° |
| 2026-05-06 04:45 | 51.47670 | -0.69619 | 2748 ft | 161 kts | 85° |
| 2026-05-06 04:45 | 51.47677 | -0.67916 | 2537 ft | 150 kts | 85° |
| 2026-05-06 04:45 | 51.47683 | -0.66268 | 2346 ft | 146 kts | 85° |
| 2026-05-06 04:46 | 51.47691 | -0.64645 | 2147 ft | 146 kts | 85° |
| 2026-05-06 04:46 | 51.47697 | -0.63017 | 1949 ft | 147 kts | 85° |
| 2026-05-06 04:46 | 51.47702 | -0.61380 | 1751 ft | 147 kts | 84° |
| 2026-05-06 04:46 | 51.47708 | -0.59748 | 1524 ft | 146 kts | 85° |
| 2026-05-06 04:47 | 51.47714 | -0.58113 | 1352 ft | 148 kts | 85° |
| 2026-05-06 04:47 | 51.47720 | -0.56459 | 1130 ft | 149 kts | 85° |
| 2026-05-06 04:47 | 51.47726 | -0.54807 | 907 ft | 148 kts | 87° |
| 2026-05-06 04:47 | 51.47732 | -0.53141 | 697 ft | 152 kts | 85° |
| 2026-05-06 04:48 | 51.47735 | -0.51468 | 485 ft | 151 kts | 86° |
| 2026-05-06 04:48 | 51.47742 | -0.49770 | 280 ft | 153 kts | 87° |
| 2026-05-06 04:48 | 51.47751 | -0.48074 | 114 ft | 152 kts | 86° |
| 2026-05-06 04:48 | 51.47759 | -0.46533 | 97 ft | 112 kts | 91° |
| 2026-05-06 04:49 | 51.47761 | -0.45634 | 92 ft | 63 kts | 90° |
| 2026-05-06 04:49 | 51.47761 | -0.45002 | 95 ft | 43 kts | 95° |
| 2026-05-06 04:49 | 51.47618 | -0.44759 | 94 ft | 17 kts | 127° |
| 2026-05-06 04:49 | 51.47533 | -0.44639 | 94 ft | 17 kts | 137° |
| 2026-05-06 04:50 | 51.47431 | -0.44561 | 93 ft | 17 kts | 173° |
| 2026-05-06 04:50 | 51.47324 | -0.44559 | 91 ft | 12 kts | 180° |
| 2026-05-06 04:50 | 51.47267 | -0.44492 | 95 ft | 7 kts | 106° |
| 2026-05-06 04:50 | 51.47268 | -0.44429 | 94 ft | 4 kts | 91° |
| 2026-05-06 04:51 | 51.47268 | -0.44416 | 94 ft | 0 kts | 90° |